sensor_id;sensor_type;location;lat;lon;timestamp;pressure;altitude;pressure_sealevel;temperature;humidity
84116;BME280;74211;52.234;9.860;2023-12-04T00:02:21;101283.00;;;-1.38;79.99
84116;BME280;74211;52.234;9.860;2023-12-04T00:04:54;101284.56;;;-1.36;80.46
84116;BME280;74211;52.234;9.860;2023-12-04T00:07:24;101241.50;;;-1.56;80.35
84116;BME280;74211;52.234;9.860;2023-12-04T00:09:56;101276.88;;;-1.36;80.83
84116;BME280;74211;52.234;9.860;2023-12-04T00:12:26;101281.72;;;-1.31;80.74
84116;BME280;74211;52.234;9.860;2023-12-04T00:14:57;101257.16;;;-1.48;80.41
84116;BME280;74211;52.234;9.860;2023-12-04T00:17:26;101260.66;;;-1.49;82.14
84116;BME280;74211;52.234;9.860;2023-12-04T00:19:59;101257.41;;;-1.38;83.53
84116;BME280;74211;52.234;9.860;2023-12-04T00:22:29;101245.91;;;-1.46;83.76
84116;BME280;74211;52.234;9.860;2023-12-04T00:25:00;101247.47;;;-1.43;84.49
84116;BME280;74211;52.234;9.860;2023-12-04T00:27:30;101251.28;;;-1.36;83.71
84116;BME280;74211;52.234;9.860;2023-12-04T00:30:00;101244.53;;;-1.37;84.33
84116;BME280;74211;52.234;9.860;2023-12-04T00:32:31;101243.81;;;-1.39;84.36
84116;BME280;74211;52.234;9.860;2023-12-04T00:35:04;101232.56;;;-1.36;84.55
84116;BME280;74211;52.234;9.860;2023-12-04T00:37:34;101223.47;;;-1.28;83.51
84116;BME280;74211;52.234;9.860;2023-12-04T00:40:07;101214.13;;;-1.29;83.54
84116;BME280;74211;52.234;9.860;2023-12-04T00:42:37;101222.88;;;-1.19;83.25
84116;BME280;74211;52.234;9.860;2023-12-04T00:45:08;101226.44;;;-1.21;82.24
84116;BME280;74211;52.234;9.860;2023-12-04T00:47:38;101215.50;;;-1.23;82.29
84116;BME280;74211;52.234;9.860;2023-12-04T00:50:11;101210.72;;;-1.15;82.05
84116;BME280;74211;52.234;9.860;2023-12-04T00:52:42;101203.41;;;-1.21;82.10
84116;BME280;74211;52.234;9.860;2023-12-04T00:55:12;101198.72;;;-1.15;82.36
84116;BME280;74211;52.234;9.860;2023-12-04T00:57:40;101194.00;;;-1.21;82.04
84116;BME280;74211;52.234;9.860;2023-12-04T01:00:11;101189.06;;;-1.24;82.03
84116;BME280;74211;52.234;9.860;2023-12-04T01:02:42;101192.16;;;-1.19;82.72
84116;BME280;74211;52.234;9.860;2023-12-04T01:05:14;101190.44;;;-1.18;80.91
84116;BME280;74211;52.234;9.860;2023-12-04T01:07:44;101194.81;;;-1.20;81.49
84116;BME280;74211;52.234;9.860;2023-12-04T01:10:14;101185.31;;;-1.18;81.45
84116;BME280;74211;52.234;9.860;2023-12-04T01:12:44;101180.09;;;-1.17;80.88
84116;BME280;74211;52.234;9.860;2023-12-04T01:15:15;101178.66;;;-1.21;81.70
84116;BME280;74211;52.234;9.860;2023-12-04T01:17:45;101171.88;;;-1.22;81.88
84116;BME280;74211;52.234;9.860;2023-12-04T01:20:18;101165.84;;;-1.21;81.64
84116;BME280;74211;52.234;9.860;2023-12-04T01:22:48;101159.81;;;-1.20;81.74
84116;BME280;74211;52.234;9.860;2023-12-04T01:25:18;101161.84;;;-1.25;82.11
84116;BME280;74211;52.234;9.860;2023-12-04T01:27:48;101163.50;;;-1.24;82.22
84116;BME280;74211;52.234;9.860;2023-12-04T01:30:19;101160.00;;;-1.23;82.51
84116;BME280;74211;52.234;9.860;2023-12-04T01:32:48;101153.97;;;-1.22;83.21
84116;BME280;74211;52.234;9.860;2023-12-04T01:35:21;101154.91;;;-1.23;83.11
84116;BME280;74211;52.234;9.860;2023-12-04T01:37:51;101154.06;;;-1.23;83.13
84116;BME280;74211;52.234;9.860;2023-12-04T01:40:21;101155.91;;;-1.25;83.67
84116;BME280;74211;52.234;9.860;2023-12-04T01:42:52;101143.94;;;-1.25;84.12
84116;BME280;74211;52.234;9.860;2023-12-04T01:45:23;101134.63;;;-1.26;84.37
84116;BME280;74211;52.234;9.860;2023-12-04T01:47:53;101120.81;;;-1.36;85.08
84116;BME280;74211;52.234;9.860;2023-12-04T01:50:26;101140.56;;;-1.25;85.96
84116;BME280;74211;52.234;9.860;2023-12-04T01:52:57;101129.31;;;-1.23;86.29
84116;BME280;74211;52.234;9.860;2023-12-04T01:55:27;101124.19;;;-1.23;86.55
84116;BME280;74211;52.234;9.860;2023-12-04T01:57:59;101120.72;;;-1.22;87.58
84116;BME280;74211;52.234;9.860;2023-12-04T02:00:30;101130.50;;;-1.28;87.63
84116;BME280;74211;52.234;9.860;2023-12-04T02:03:01;101108.31;;;-1.28;87.60
84116;BME280;74211;52.234;9.860;2023-12-04T02:05:34;101071.56;;;-1.52;88.11
84116;BME280;74211;52.234;9.860;2023-12-04T02:08:05;101098.69;;;-1.24;87.88
84116;BME280;74211;52.234;9.860;2023-12-04T02:10:35;101090.00;;;-1.22;87.09
84116;BME280;74211;52.234;9.860;2023-12-04T02:13:06;101089.59;;;-1.16;87.69
84116;BME280;74211;52.234;9.860;2023-12-04T02:15:36;101085.28;;;-1.15;87.15
84116;BME280;74211;52.234;9.860;2023-12-04T02:18:06;101074.97;;;-1.14;86.72
84116;BME280;74211;52.234;9.860;2023-12-04T02:20:39;101072.41;;;-1.14;86.78
84116;BME280;74211;52.234;9.860;2023-12-04T02:23:10;101078.22;;;-1.12;87.13
84116;BME280;74211;52.234;9.860;2023-12-04T02:25:43;101077.28;;;-1.11;86.82
84116;BME280;74211;52.234;9.860;2023-12-04T02:28:14;101075.66;;;-0.99;86.39
84116;BME280;74211;52.234;9.860;2023-12-04T02:30:46;101073.81;;;-0.97;86.13
84116;BME280;74211;52.234;9.860;2023-12-04T02:33:22;101074.81;;;-0.87;86.03
84116;BME280;74211;52.234;9.860;2023-12-04T02:35:55;101070.00;;;-0.91;85.13
84116;BME280;74211;52.234;9.860;2023-12-04T02:38:27;101073.88;;;-0.86;85.23
84116;BME280;74211;52.234;9.860;2023-12-04T02:41:00;101073.16;;;-0.88;85.70
84116;BME280;74211;52.234;9.860;2023-12-04T02:43:30;101072.13;;;-0.85;84.22
84116;BME280;74211;52.234;9.860;2023-12-04T02:46:00;101068.88;;;-0.87;83.25
84116;BME280;74211;52.234;9.860;2023-12-04T02:48:31;101057.69;;;-0.86;83.32
84116;BME280;74211;52.234;9.860;2023-12-04T02:51:02;101060.16;;;-0.85;83.55
84116;BME280;74211;52.234;9.860;2023-12-04T02:53:32;101052.16;;;-0.80;82.99
84116;BME280;74211;52.234;9.860;2023-12-04T02:56:06;101049.59;;;-0.80;83.11
84116;BME280;74211;52.234;9.860;2023-12-04T02:58:36;101052.53;;;-0.74;82.72
84116;BME280;74211;52.234;9.860;2023-12-04T03:01:06;101042.91;;;-0.70;83.10
84116;BME280;74211;52.234;9.860;2023-12-04T03:03:39;101039.38;;;-0.80;82.29
84116;BME280;74211;52.234;9.860;2023-12-04T03:06:09;101028.91;;;-0.77;82.53
84116;BME280;74211;52.234;9.860;2023-12-04T03:08:43;101028.19;;;-0.79;82.29
84116;BME280;74211;52.234;9.860;2023-12-04T03:11:15;101028.66;;;-0.74;81.25
84116;BME280;74211;52.234;9.860;2023-12-04T03:13:46;101029.50;;;-0.74;81.60
84116;BME280;74211;52.234;9.860;2023-12-04T03:16:16;101031.41;;;-0.64;81.70
84116;BME280;74211;52.234;9.860;2023-12-04T03:18:46;101023.41;;;-0.60;81.23
84116;BME280;74211;52.234;9.860;2023-12-04T03:21:16;101033.97;;;-0.64;80.76
84116;BME280;74211;52.234;9.860;2023-12-04T03:23:46;101028.97;;;-0.66;80.42
84116;BME280;74211;52.234;9.860;2023-12-04T03:26:19;101026.59;;;-0.69;80.69
84116;BME280;74211;52.234;9.860;2023-12-04T03:28:49;101030.00;;;-0.68;80.93
84116;BME280;74211;52.234;9.860;2023-12-04T03:31:19;101025.59;;;-0.66;81.32
84116;BME280;74211;52.234;9.860;2023-12-04T03:33:49;101019.03;;;-0.71;80.19
84116;BME280;74211;52.234;9.860;2023-12-04T03:36:19;101013.59;;;-0.66;81.58
84116;BME280;74211;52.234;9.860;2023-12-04T03:38:50;101010.22;;;-0.66;81.41
84116;BME280;74211;52.234;9.860;2023-12-04T03:41:22;101009.59;;;-0.57;81.68
84116;BME280;74211;52.234;9.860;2023-12-04T03:43:53;100994.22;;;-0.57;80.47
84116;BME280;74211;52.234;9.860;2023-12-04T03:46:23;100984.31;;;-0.51;79.84
84116;BME280;74211;52.234;9.860;2023-12-04T03:48:55;100987.38;;;-0.46;81.06
84116;BME280;74211;52.234;9.860;2023-12-04T03:51:25;100984.09;;;-0.48;80.62
84116;BME280;74211;52.234;9.860;2023-12-04T03:53:55;100978.06;;;-0.47;79.98
84116;BME280;74211;52.234;9.860;2023-12-04T03:56:27;100969.16;;;-0.54;79.80
84116;BME280;74211;52.234;9.860;2023-12-04T03:58:57;100973.03;;;-0.48;79.89
84116;BME280;74211;52.234;9.860;2023-12-04T04:01:28;100963.59;;;-0.48;76.46
84116;BME280;74211;52.234;9.860;2023-12-04T04:03:58;100961.25;;;-0.51;78.70
84116;BME280;74211;52.234;9.860;2023-12-04T04:06:28;100956.84;;;-0.49;77.61
84116;BME280;74211;52.234;9.860;2023-12-04T04:08:58;100961.38;;;-0.52;78.76
84116;BME280;74211;52.234;9.860;2023-12-04T04:11:31;100932.63;;;-0.56;79.65
84116;BME280;74211;52.234;9.860;2023-12-04T04:14:00;100933.09;;;-0.51;79.45
84116;BME280;74211;52.234;9.860;2023-12-04T04:16:30;100933.78;;;-0.49;79.22
84116;BME280;74211;52.234;9.860;2023-12-04T04:19:00;100925.72;;;-0.55;80.04
84116;BME280;74211;52.234;9.860;2023-12-04T04:21:31;100919.56;;;-0.53;78.26
84116;BME280;74211;52.234;9.860;2023-12-04T04:24:02;100916.06;;;-0.52;78.70
84116;BME280;74211;52.234;9.860;2023-12-04T04:26:35;100919.13;;;-0.47;78.60
84116;BME280;74211;52.234;9.860;2023-12-04T04:29:04;100927.75;;;-0.37;78.32
84116;BME280;74211;52.234;9.860;2023-12-04T04:31:35;100915.66;;;-0.35;78.62
84116;BME280;74211;52.234;9.860;2023-12-04T04:34:05;100918.47;;;-0.38;75.24
84116;BME280;74211;52.234;9.860;2023-12-04T04:36:35;100921.75;;;-0.24;78.16
84116;BME280;74211;52.234;9.860;2023-12-04T04:39:05;100923.59;;;-0.38;78.40
84116;BME280;74211;52.234;9.860;2023-12-04T04:41:38;100912.75;;;-0.30;77.67
84116;BME280;74211;52.234;9.860;2023-12-04T04:44:08;100913.38;;;-0.26;77.27
84116;BME280;74211;52.234;9.860;2023-12-04T04:46:38;100908.34;;;-0.28;76.89
84116;BME280;74211;52.234;9.860;2023-12-04T04:49:08;100906.00;;;-0.31;76.08
84116;BME280;74211;52.234;9.860;2023-12-04T04:51:38;100900.06;;;-0.31;75.56
84116;BME280;74211;52.234;9.860;2023-12-04T04:54:08;100899.72;;;-0.27;77.28
84116;BME280;74211;52.234;9.860;2023-12-04T04:56:40;100896.34;;;-0.27;76.60
84116;BME280;74211;52.234;9.860;2023-12-04T04:59:10;100887.63;;;-0.25;75.67
84116;BME280;74211;52.234;9.860;2023-12-04T05:01:40;100883.75;;;-0.30;75.62
84116;BME280;74211;52.234;9.860;2023-12-04T05:04:10;100883.66;;;-0.29;75.57
84116;BME280;74211;52.234;9.860;2023-12-04T05:06:41;100878.63;;;-0.30;75.82
84116;BME280;74211;52.234;9.860;2023-12-04T05:09:11;100877.00;;;-0.31;75.98
84116;BME280;74211;52.234;9.860;2023-12-04T05:11:43;100873.50;;;-0.30;76.13
84116;BME280;74211;52.234;9.860;2023-12-04T05:14:14;100877.47;;;-0.26;75.47
84116;BME280;74211;52.234;9.860;2023-12-04T05:16:43;100887.97;;;-0.18;75.92
84116;BME280;74211;52.234;9.860;2023-12-04T05:19:13;100875.50;;;-0.23;74.54
84116;BME280;74211;52.234;9.860;2023-12-04T05:21:44;100886.91;;;-0.16;77.60
84116;BME280;74211;52.234;9.860;2023-12-04T05:24:14;100886.69;;;-0.13;77.08
84116;BME280;74211;52.234;9.860;2023-12-04T05:26:46;100867.72;;;-0.21;75.04
84116;BME280;74211;52.234;9.860;2023-12-04T05:29:16;100875.16;;;-0.18;74.92
84116;BME280;74211;52.234;9.860;2023-12-04T05:31:46;100876.44;;;-0.24;75.29
84116;BME280;74211;52.234;9.860;2023-12-04T05:34:16;100866.53;;;-0.28;76.11
84116;BME280;74211;52.234;9.860;2023-12-04T05:36:46;100860.69;;;-0.30;76.96
84116;BME280;74211;52.234;9.860;2023-12-04T05:39:16;100858.50;;;-0.24;75.96
84116;BME280;74211;52.234;9.860;2023-12-04T05:41:49;100847.19;;;-0.32;76.25
84116;BME280;74211;52.234;9.860;2023-12-04T05:44:19;100853.97;;;-0.20;76.20
84116;BME280;74211;52.234;9.860;2023-12-04T05:46:49;100855.59;;;-0.19;74.55
84116;BME280;74211;52.234;9.860;2023-12-04T05:49:19;100854.31;;;-0.25;75.23
84116;BME280;74211;52.234;9.860;2023-12-04T05:51:49;100859.75;;;-0.18;75.45
84116;BME280;74211;52.234;9.860;2023-12-04T05:54:19;100850.69;;;-0.22;75.54
84116;BME280;74211;52.234;9.860;2023-12-04T05:56:51;100851.16;;;-0.17;75.99
84116;BME280;74211;52.234;9.860;2023-12-04T05:59:21;100852.88;;;-0.18;74.30
84116;BME280;74211;52.234;9.860;2023-12-04T06:01:51;100847.78;;;-0.18;72.36
84116;BME280;74211;52.234;9.860;2023-12-04T06:04:21;100847.91;;;-0.19;74.78
84116;BME280;74211;52.234;9.860;2023-12-04T06:06:51;100850.22;;;-0.16;74.34
84116;BME280;74211;52.234;9.860;2023-12-04T06:09:21;100837.16;;;-0.13;73.66
84116;BME280;74211;52.234;9.860;2023-12-04T06:11:56;100826.69;;;-0.21;73.41
84116;BME280;74211;52.234;9.860;2023-12-04T06:14:31;100838.31;;;-0.17;73.19
84116;BME280;74211;52.234;9.860;2023-12-04T06:17:01;100842.91;;;-0.10;73.97
84116;BME280;74211;52.234;9.860;2023-12-04T06:19:32;100830.78;;;-0.19;74.01
84116;BME280;74211;52.234;9.860;2023-12-04T06:22:02;100827.03;;;-0.15;73.32
84116;BME280;74211;52.234;9.860;2023-12-04T06:24:33;100829.97;;;-0.19;75.00
84116;BME280;74211;52.234;9.860;2023-12-04T06:27:07;100831.56;;;-0.18;75.77
84116;BME280;74211;52.234;9.860;2023-12-04T06:29:39;100830.41;;;-0.14;73.88
84116;BME280;74211;52.234;9.860;2023-12-04T06:32:12;100828.06;;;-0.17;72.98
84116;BME280;74211;52.234;9.860;2023-12-04T06:34:43;100822.28;;;-0.19;72.77
84116;BME280;74211;52.234;9.860;2023-12-04T06:37:14;100798.72;;;-0.36;73.90
84116;BME280;74211;52.234;9.860;2023-12-04T06:39:45;100820.97;;;-0.14;74.53
84116;BME280;74211;52.234;9.860;2023-12-04T06:42:21;100828.31;;;-0.09;75.21
84116;BME280;74211;52.234;9.860;2023-12-04T06:44:51;100822.50;;;-0.11;74.18
84116;BME280;74211;52.234;9.860;2023-12-04T06:47:22;100808.16;;;-0.25;72.71
84116;BME280;74211;52.234;9.860;2023-12-04T06:49:52;100828.09;;;-0.06;73.53
84116;BME280;74211;52.234;9.860;2023-12-04T06:52:22;100823.78;;;-0.06;74.84
84116;BME280;74211;52.234;9.860;2023-12-04T06:54:52;100831.47;;;-0.06;74.41
84116;BME280;74211;52.234;9.860;2023-12-04T06:57:25;100827.97;;;-0.05;72.45
84116;BME280;74211;52.234;9.860;2023-12-04T06:59:55;100828.91;;;-0.06;73.93
84116;BME280;74211;52.234;9.860;2023-12-04T07:02:26;100828.31;;;0.02;73.87
84116;BME280;74211;52.234;9.860;2023-12-04T07:04:56;100833.94;;;-0.04;73.46
84116;BME280;74211;52.234;9.860;2023-12-04T07:07:26;100831.13;;;-0.01;74.22
84116;BME280;74211;52.234;9.860;2023-12-04T07:09:56;100837.31;;;-0.04;71.82
84116;BME280;74211;52.234;9.860;2023-12-04T07:12:29;100833.94;;;-0.04;73.00
84116;BME280;74211;52.234;9.860;2023-12-04T07:14:59;100833.31;;;0.04;73.89
84116;BME280;74211;52.234;9.860;2023-12-04T07:17:29;100833.91;;;0.07;74.38
84116;BME280;74211;52.234;9.860;2023-12-04T07:19:59;100834.75;;;-0.04;73.66
84116;BME280;74211;52.234;9.860;2023-12-04T07:22:29;100838.81;;;-0.01;74.19
84116;BME280;74211;52.234;9.860;2023-12-04T07:25:05;100825.75;;;-0.09;73.11
84116;BME280;74211;52.234;9.860;2023-12-04T07:27:39;100844.19;;;-0.04;73.91
84116;BME280;74211;52.234;9.860;2023-12-04T07:30:10;100842.56;;;-0.05;74.18
84116;BME280;74211;52.234;9.860;2023-12-04T07:32:44;100826.44;;;-0.18;73.88
84116;BME280;74211;52.234;9.860;2023-12-04T07:35:14;100841.81;;;-0.18;74.41
84116;BME280;74211;52.234;9.860;2023-12-04T07:37:45;100843.47;;;-0.06;73.71
84116;BME280;74211;52.234;9.860;2023-12-04T07:40:15;100842.78;;;-0.08;73.98
84116;BME280;74211;52.234;9.860;2023-12-04T07:42:48;100842.56;;;-0.05;72.33
84116;BME280;74211;52.234;9.860;2023-12-04T07:45:18;100839.66;;;-0.01;72.44
84116;BME280;74211;52.234;9.860;2023-12-04T07:47:48;100839.28;;;-0.07;72.19
84116;BME280;74211;52.234;9.860;2023-12-04T07:50:18;100838.94;;;-0.03;69.69
84116;BME280;74211;52.234;9.860;2023-12-04T07:52:48;100832.06;;;-0.02;70.40
84116;BME280;74211;52.234;9.860;2023-12-04T07:55:18;100821.31;;;0.04;71.29
84116;BME280;74211;52.234;9.860;2023-12-04T07:57:50;100835.06;;;0.03;69.83
84116;BME280;74211;52.234;9.860;2023-12-04T08:00:20;100821.69;;;-0.01;70.96
84116;BME280;74211;52.234;9.860;2023-12-04T08:02:53;100816.44;;;0.01;70.80
84116;BME280;74211;52.234;9.860;2023-12-04T08:05:23;100820.41;;;0.05;70.90
84116;BME280;74211;52.234;9.860;2023-12-04T08:07:54;100815.16;;;0.07;69.87
84116;BME280;74211;52.234;9.860;2023-12-04T08:10:24;100818.31;;;0.10;70.71
84116;BME280;74211;52.234;9.860;2023-12-04T08:12:57;100814.09;;;0.09;72.40
84116;BME280;74211;52.234;9.860;2023-12-04T08:15:27;100822.72;;;0.08;70.63
84116;BME280;74211;52.234;9.860;2023-12-04T08:17:57;100817.38;;;0.00;72.04
84116;BME280;74211;52.234;9.860;2023-12-04T08:20:27;100819.94;;;0.00;72.08
84116;BME280;74211;52.234;9.860;2023-12-04T08:23:06;100817.38;;;0.00;72.75
84116;BME280;74211;52.234;9.860;2023-12-04T08:25:36;100821.69;;;-0.01;73.68
84116;BME280;74211;52.234;9.860;2023-12-04T08:28:09;100817.00;;;0.05;72.72
84116;BME280;74211;52.234;9.860;2023-12-04T08:30:47;100811.88;;;0.05;73.63
84116;BME280;74211;52.234;9.860;2023-12-04T08:33:18;100812.25;;;0.11;72.96
84116;BME280;74211;52.234;9.860;2023-12-04T08:35:48;100791.50;;;0.14;71.94
84116;BME280;74211;52.234;9.860;2023-12-04T08:38:18;100799.63;;;0.19;71.35
84116;BME280;74211;52.234;9.860;2023-12-04T08:40:48;100793.00;;;0.17;71.88
84116;BME280;74211;52.234;9.860;2023-12-04T08:43:21;100796.13;;;0.20;69.86
84116;BME280;74211;52.234;9.860;2023-12-04T08:45:51;100791.59;;;0.24;71.30
84116;BME280;74211;52.234;9.860;2023-12-04T08:48:22;100790.53;;;0.26;69.20
84116;BME280;74211;52.234;9.860;2023-12-04T08:50:52;100791.47;;;0.25;68.95
84116;BME280;74211;52.234;9.860;2023-12-04T08:53:22;100787.38;;;0.34;71.28
84116;BME280;74211;52.234;9.860;2023-12-04T08:55:52;100790.88;;;0.33;72.10
84116;BME280;74211;52.234;9.860;2023-12-04T08:58:25;100780.28;;;0.26;72.28
84116;BME280;74211;52.234;9.860;2023-12-04T09:00:55;100757.66;;;0.20;72.28
84116;BME280;74211;52.234;9.860;2023-12-04T09:03:25;100767.22;;;0.29;71.59
84116;BME280;74211;52.234;9.860;2023-12-04T09:05:58;100768.97;;;0.29;72.33
84116;BME280;74211;52.234;9.860;2023-12-04T09:08:28;100765.53;;;0.40;72.18
84116;BME280;74211;52.234;9.860;2023-12-04T09:11:07;100768.72;;;0.32;71.25
84116;BME280;74211;52.234;9.860;2023-12-04T09:13:52;100766.03;;;0.33;70.24
84116;BME280;74211;52.234;9.860;2023-12-04T09:16:23;100755.28;;;0.40;71.11
84116;BME280;74211;52.234;9.860;2023-12-04T09:18:53;100765.81;;;0.37;71.58
84116;BME280;74211;52.234;9.860;2023-12-04T09:21:23;100763.72;;;0.30;70.78
84116;BME280;74211;52.234;9.860;2023-12-04T09:23:54;100769.72;;;0.41;70.75
84116;BME280;74211;52.234;9.860;2023-12-04T09:26:24;100758.78;;;0.39;70.53
84116;BME280;74211;52.234;9.860;2023-12-04T09:28:56;100766.00;;;0.45;69.92
84116;BME280;74211;52.234;9.860;2023-12-04T09:31:26;100755.94;;;0.53;70.47
84116;BME280;74211;52.234;9.860;2023-12-04T09:33:56;100765.28;;;0.54;70.09
84116;BME280;74211;52.234;9.860;2023-12-04T09:36:27;100747.63;;;0.60;69.45
84116;BME280;74211;52.234;9.860;2023-12-04T09:38:57;100755.44;;;0.59;69.60
84116;BME280;74211;52.234;9.860;2023-12-04T09:41:27;100757.31;;;0.57;69.71
84116;BME280;74211;52.234;9.860;2023-12-04T09:44:00;100750.88;;;0.62;69.50
84116;BME280;74211;52.234;9.860;2023-12-04T09:46:30;100753.66;;;0.71;70.76
84116;BME280;74211;52.234;9.860;2023-12-04T09:49:01;100710.94;;;0.49;70.25
84116;BME280;74211;52.234;9.860;2023-12-04T09:51:32;100745.09;;;0.81;69.98
84116;BME280;74211;52.234;9.860;2023-12-04T09:54:02;100751.16;;;0.80;69.84
84116;BME280;74211;52.234;9.860;2023-12-04T09:56:52;100744.09;;;0.73;70.07
84116;BME280;74211;52.234;9.860;2023-12-04T09:59:47;100743.81;;;0.76;69.66
84116;BME280;74211;52.234;9.860;2023-12-04T10:02:17;100735.50;;;0.83;69.32
84116;BME280;74211;52.234;9.860;2023-12-04T10:04:49;100740.72;;;0.72;69.11
84116;BME280;74211;52.234;9.860;2023-12-04T10:07:19;100734.63;;;0.73;70.03
84116;BME280;74211;52.234;9.860;2023-12-04T10:09:49;100718.47;;;0.82;69.46
84116;BME280;74211;52.234;9.860;2023-12-04T10:12:19;100719.88;;;0.86;69.00
84116;BME280;74211;52.234;9.860;2023-12-04T10:15:08;100720.84;;;0.95;68.83
84116;BME280;74211;52.234;9.860;2023-12-04T10:17:40;100711.09;;;0.89;69.11
84116;BME280;74211;52.234;9.860;2023-12-04T10:20:12;100712.84;;;0.88;69.12
84116;BME280;74211;52.234;9.860;2023-12-04T10:22:55;100699.44;;;0.85;68.48
84116;BME280;74211;52.234;9.860;2023-12-04T10:25:28;100681.78;;;0.91;69.12
84116;BME280;74211;52.234;9.860;2023-12-04T10:28:07;100690.34;;;1.01;68.71
84116;BME280;74211;52.234;9.860;2023-12-04T10:30:40;100696.25;;;0.92;68.23
84116;BME280;74211;52.234;9.860;2023-12-04T10:33:11;100693.50;;;0.84;68.06
84116;BME280;74211;52.234;9.860;2023-12-04T10:35:42;100685.84;;;0.94;69.11
84116;BME280;74211;52.234;9.860;2023-12-04T10:38:12;100695.97;;;0.95;69.53
84116;BME280;74211;52.234;9.860;2023-12-04T10:40:42;100684.09;;;0.94;69.91
84116;BME280;74211;52.234;9.860;2023-12-04T10:43:15;100677.53;;;0.81;69.34
84116;BME280;74211;52.234;9.860;2023-12-04T10:45:50;100672.25;;;0.82;69.26
84116;BME280;74211;52.234;9.860;2023-12-04T10:48:21;100668.38;;;0.88;69.90
84116;BME280;74211;52.234;9.860;2023-12-04T10:50:51;100668.38;;;0.88;68.88
84116;BME280;74211;52.234;9.860;2023-12-04T10:53:21;100665.06;;;0.76;68.28
84116;BME280;74211;52.234;9.860;2023-12-04T10:55:56;100665.50;;;0.81;68.78
84116;BME280;74211;52.234;9.860;2023-12-04T10:58:29;100662.56;;;0.86;67.65
84116;BME280;74211;52.234;9.860;2023-12-04T11:01:05;100660.13;;;0.84;67.86
84116;BME280;74211;52.234;9.860;2023-12-04T11:03:40;100653.66;;;0.90;67.32
84116;BME280;74211;52.234;9.860;2023-12-04T11:06:11;100648.09;;;0.85;68.55
84116;BME280;74211;52.234;9.860;2023-12-04T11:08:42;100636.06;;;0.85;68.68
84116;BME280;74211;52.234;9.860;2023-12-04T11:11:15;100642.59;;;0.89;68.83
84116;BME280;74211;52.234;9.860;2023-12-04T11:13:49;100636.88;;;0.86;67.74
84116;BME280;74211;52.234;9.860;2023-12-04T11:16:31;100642.47;;;0.91;67.52
84116;BME280;74211;52.234;9.860;2023-12-04T11:19:11;100647.88;;;0.97;67.82
84116;BME280;74211;52.234;9.860;2023-12-04T11:21:45;100632.72;;;0.94;67.94
84116;BME280;74211;52.234;9.860;2023-12-04T11:24:16;100619.66;;;0.77;67.83
84116;BME280;74211;52.234;9.860;2023-12-04T11:26:47;100632.44;;;0.88;68.12
84116;BME280;74211;52.234;9.860;2023-12-04T11:29:19;100623.09;;;0.87;66.53
84116;BME280;74211;52.234;9.860;2023-12-04T11:31:52;100623.47;;;0.82;68.09
84116;BME280;74211;52.234;9.860;2023-12-04T11:34:21;100625.31;;;0.91;68.39
84116;BME280;74211;52.234;9.860;2023-12-04T11:36:52;100611.91;;;0.88;68.09
84116;BME280;74211;52.234;9.860;2023-12-04T11:39:25;100610.53;;;0.84;68.02
84116;BME280;74211;52.234;9.860;2023-12-04T11:41:55;100582.88;;;0.66;68.59
84116;BME280;74211;52.234;9.860;2023-12-04T11:44:25;100603.88;;;0.81;68.63
84116;BME280;74211;52.234;9.860;2023-12-04T11:47:06;100598.75;;;0.81;68.08
84116;BME280;74211;52.234;9.860;2023-12-04T11:49:36;100594.94;;;0.76;67.08
84116;BME280;74211;52.234;9.860;2023-12-04T11:52:06;100593.63;;;0.81;66.23
84116;BME280;74211;52.234;9.860;2023-12-04T11:54:55;100589.97;;;0.84;66.40
84116;BME280;74211;52.234;9.860;2023-12-04T11:57:26;100575.91;;;0.78;65.92
84116;BME280;74211;52.234;9.860;2023-12-04T12:00:12;100591.03;;;0.81;66.76
84116;BME280;74211;52.234;9.860;2023-12-04T12:03:01;100584.34;;;0.90;67.70
84116;BME280;74211;52.234;9.860;2023-12-04T12:05:49;100569.47;;;0.93;67.75
84116;BME280;74211;52.234;9.860;2023-12-04T12:08:23;100576.53;;;1.01;67.90
84116;BME280;74211;52.234;9.860;2023-12-04T12:10:53;100564.25;;;1.04;65.59
84116;BME280;74211;52.234;9.860;2023-12-04T12:13:23;100571.72;;;1.17;68.13
84116;BME280;74211;52.234;9.860;2023-12-04T12:15:54;100560.63;;;1.17;66.90
84116;BME280;74211;52.234;9.860;2023-12-04T12:18:28;100562.25;;;1.18;65.64
84116;BME280;74211;52.234;9.860;2023-12-04T12:20:59;100559.72;;;1.27;64.81
84116;BME280;74211;52.234;9.860;2023-12-04T12:23:32;100556.34;;;1.27;64.21
84116;BME280;74211;52.234;9.860;2023-12-04T12:26:03;100546.59;;;1.30;64.08
84116;BME280;74211;52.234;9.860;2023-12-04T12:28:34;100536.47;;;1.29;63.81
84116;BME280;74211;52.234;9.860;2023-12-04T12:31:05;100543.50;;;1.27;65.33
84116;BME280;74211;52.234;9.860;2023-12-04T12:33:39;100526.72;;;1.23;64.80
84116;BME280;74211;52.234;9.860;2023-12-04T12:36:10;100528.78;;;1.29;64.56
84116;BME280;74211;52.234;9.860;2023-12-04T12:38:40;100531.19;;;1.21;65.22
84116;BME280;74211;52.234;9.860;2023-12-04T12:41:16;100533.19;;;1.17;64.43
84116;BME280;74211;52.234;9.860;2023-12-04T12:43:51;100523.59;;;1.19;64.78
84116;BME280;74211;52.234;9.860;2023-12-04T12:46:21;100513.44;;;1.18;64.57
84116;BME280;74211;52.234;9.860;2023-12-04T12:48:56;100515.75;;;1.21;66.28
84116;BME280;74211;52.234;9.860;2023-12-04T12:51:28;100504.13;;;1.17;67.36
84116;BME280;74211;52.234;9.860;2023-12-04T12:53:58;100492.09;;;1.08;65.67
84116;BME280;74211;52.234;9.860;2023-12-04T12:56:28;100503.34;;;1.26;67.18
84116;BME280;74211;52.234;9.860;2023-12-04T12:58:59;100502.09;;;1.20;66.07
84116;BME280;74211;52.234;9.860;2023-12-04T13:01:30;100494.13;;;1.23;65.22
84116;BME280;74211;52.234;9.860;2023-12-04T13:04:04;100494.09;;;1.14;65.61
84116;BME280;74211;52.234;9.860;2023-12-04T13:06:34;100484.50;;;1.16;66.27
84116;BME280;74211;52.234;9.860;2023-12-04T13:09:04;100490.88;;;1.21;66.87
84116;BME280;74211;52.234;9.860;2023-12-04T13:11:35;100480.47;;;1.23;66.16
84116;BME280;74211;52.234;9.860;2023-12-04T13:14:05;100483.19;;;1.31;67.86
84116;BME280;74211;52.234;9.860;2023-12-04T13:16:35;100478.34;;;1.28;65.91
84116;BME280;74211;52.234;9.860;2023-12-04T13:19:08;100476.03;;;1.34;68.60